KHXD

Hilton Head Airport

Hilton Head Island, South Carolina, USA
METAR KHXD 250055Z AUTO 00000KT 10SM FEW013 FEW120 24/23 A3010 RMK AO2
Observed Flight Rules
May-25 @ 00:55 UTC (22 minutes ago) Visual Flight Rules
Visibility Clouds
10 miles
  • Few at 1,300' AGL
  • Few at 12,000' AGL
Temperatures Readings
Current 24°C / 75°F
Dewpoint 23°C / 73°F
Humidity 94%
Altimeter 30.1" Hg
Pressure 1019 hPa
Elevation 6
METAR KHXD 250055Z AUTO 00000KT 10SM FEW013 FEW120 24/23 A3010 RMK AO2
Observed Flight Rules
May-25 @ 00:55 UTC
(22 minutes ago)
VFR
Clouds
  • Few at 1,300' AGL
  • Few at 12,000' AGL
Temperature Dewpoint
24°C / 75°F 23°C / 73°F
Humidity Altimeter Pressure
94% 30.1" Hg 1019 hPa